»·PEaware :: N906DG KBUR-KLAS

N906DG :: KBUR-KLAS

FLIGHT INFORMATION

Flight Status: Arrived
Operator: Privately registered:
United States
More flights under this callsign
Pilot: Yoon S. (34180)
Aircraft: CESSNA 182 SKYLANE
(C182)
More flights by this aircraft type
Origin: KBUR Bob Hope-Burbank
United States
Destination: KLAS Harry Reid Intl
United States
More flights between these airports :: More routes between these airports
Route: VNY3 DAG CRESO5
File this flight plan on PilotEdge
Remarks: I-5 rating
Altitude:
(Current/Filed)
13,000ft
Speed:
(Current/Filed)
140kts
Departed: 01-Oct-22 10:16 AM
Arrived: 01-Oct-22 12:44 PM
Distance/Time
Traveled:
193nm/2:27
Distance/Time
To Go:
Arrived

Flight Plot

Page will automatically refresh every two minutes.

Flight plan parsing failed; only flown route is shown


Map Options




Map Legend


Flown Route
Filed Route
Departure Airport
Arrival Airport
Navaid (VOR, NDB)
Fix

Horizontal Profiles

Position Reports

Time Latitude Longitude Heading Altitude Ground
Speed
01-Oct-22 09:58 34.203285 -118.360663 153 737ft 0kts
01-Oct-22 09:59 34.203285 -118.360663 153 737ft 0kts
01-Oct-22 10:01 34.203285 -118.360663 153 737ft 0kts
01-Oct-22 10:02 34.203285 -118.360663 153 737ft 0kts
01-Oct-22 10:03 34.203285 -118.360663 153 737ft 0kts
01-Oct-22 10:04 34.203285 -118.360663 153 737ft 0kts
01-Oct-22 10:05 34.203285 -118.360663 153 737ft 0kts
01-Oct-22 10:06 34.203241 -118.360349 76 737ft 0kts
01-Oct-22 10:07 34.203241 -118.360349 76 737ft 0kts
01-Oct-22 10:08 34.203241 -118.360348 76 737ft 0kts
01-Oct-22 10:09 34.204593 -118.359779 11 740ft 8kts
01-Oct-22 10:10 34.206952 -118.360131 346 749ft 8kts
01-Oct-22 10:11 34.209409 -118.360797 349 761ft 8kts
01-Oct-22 10:12 34.211515 -118.361195 22 769ft 0kts
01-Oct-22 10:13 34.211515 -118.361195 22 769ft 0kts
01-Oct-22 10:14 34.211515 -118.361195 22 769ft 0kts
01-Oct-22 10:15 34.211529 -118.361188 22 769ft 1kts
01-Oct-22 10:16 34.206008 -118.358725 168 817ft 87kts
01-Oct-22 10:17 34.180901 -118.369231 224 1814ft 110kts
01-Oct-22 10:18 34.160030 -118.394547 224 2809ft 104kts
01-Oct-22 10:19 34.156260 -118.425902 338 3324ft 126kts
01-Oct-22 10:20 34.188117 -118.432178 351 4330ft 108kts
01-Oct-22 10:21 34.217077 -118.436998 351 5323ft 103kts
01-Oct-22 10:22 34.244892 -118.441615 351 6320ft 100kts
01-Oct-22 10:23 34.272243 -118.445136 353 7319ft 98kts
01-Oct-22 10:24 34.299124 -118.448428 353 8316ft 98kts
01-Oct-22 10:24 34.321956 -118.451713 351 9133ft 102kts
01-Oct-22 10:25 34.351113 -118.456536 351 10038ft 110kts
01-Oct-22 10:27 34.385840 -118.452149 40 11084ft 114kts
01-Oct-22 10:28 34.406576 -118.422912 52 11983ft 115kts
01-Oct-22 10:28 34.423344 -118.395756 52 12558ft 127kts
01-Oct-22 10:29 34.445249 -118.360328 52 13061ft 142kts
01-Oct-22 10:43 34.203285 -118.360663 153 737ft 0kts
01-Oct-22 10:44 34.203285 -118.360663 153 737ft 0kts
01-Oct-22 10:45 34.203285 -118.360663 153 737ft 0kts
01-Oct-22 10:46 34.203285 -118.360663 153 737ft 0kts
01-Oct-22 10:47 34.203285 -118.360663 153 737ft 0kts
01-Oct-22 10:48 34.203285 -118.360663 153 737ft 0kts
01-Oct-22 10:49 34.203285 -118.360663 153 737ft 0kts
01-Oct-22 10:50 34.203285 -118.360663 153 737ft 0kts
01-Oct-22 10:51 34.203285 -118.360663 153 737ft 0kts
01-Oct-22 10:52 34.203285 -118.360663 153 737ft 0kts
01-Oct-22 10:53 34.203285 -118.360663 153 737ft 0kts
01-Oct-22 10:54 34.203293 -118.360139 76 737ft 0kts
01-Oct-22 10:55 34.203963 -118.359887 0 739ft 8kts
01-Oct-22 10:56 34.206221 -118.359915 348 745ft 8kts
01-Oct-22 10:57 34.209136 -118.360723 347 759ft 11kts
01-Oct-22 10:58 34.211518 -118.361194 33 769ft 0kts
01-Oct-22 10:59 34.211518 -118.361194 33 769ft 0kts
01-Oct-22 11:00 34.209101 -118.359542 168 759ft 67kts
01-Oct-22 11:01 34.184878 -118.366602 241 1642ft 114kts
01-Oct-22 11:02 34.170962 -118.399427 243 2635ft 107kts
01-Oct-22 11:03 34.153528 -118.427584 224 3635ft 105kts
01-Oct-22 11:04 34.158252 -118.450827 359 4633ft 103kts
01-Oct-22 11:05 34.186790 -118.450219 358 5631ft 103kts
01-Oct-22 11:06 34.215378 -118.451318 358 6633ft 103kts
01-Oct-22 11:07 34.243874 -118.452431 358 7632ft 103kts
01-Oct-22 11:08 34.272448 -118.453543 358 8635ft 103kts
01-Oct-22 11:09 34.300828 -118.454645 358 9633ft 102kts
01-Oct-22 11:10 34.329192 -118.455743 358 10633ft 102kts
01-Oct-22 11:11 34.357998 -118.456857 358 11583ft 108kts
01-Oct-22 11:12 34.387768 -118.448562 26 12430ft 119kts
01-Oct-22 11:13 34.411028 -118.417140 53 13007ft 139kts
01-Oct-22 11:14 34.435874 -118.377097 53 12994ft 153kts
01-Oct-22 11:15 34.461662 -118.335542 53 13017ft 151kts
01-Oct-22 11:16 34.486924 -118.294845 53 13010ft 151kts
01-Oct-22 11:17 34.511404 -118.255430 53 13010ft 144kts
01-Oct-22 11:18 34.535354 -118.216860 53 13011ft 143kts
01-Oct-22 11:19 34.559355 -118.178200 53 13011ft 143kts
01-Oct-22 11:20 34.583249 -118.139709 53 13011ft 143kts
01-Oct-22 11:21 34.607733 -118.101523 52 13011ft 143kts
01-Oct-22 11:22 34.629918 -118.061888 77 13013ft 142kts
01-Oct-22 11:23 34.636604 -118.014321 81 13011ft 143kts
01-Oct-22 11:24 34.642635 -117.966665 81 13011ft 143kts
01-Oct-22 11:25 34.648681 -117.918940 81 13011ft 143kts
01-Oct-22 11:26 34.654306 -117.871071 84 13011ft 143kts
01-Oct-22 11:27 34.657840 -117.822940 84 13011ft 143kts
01-Oct-22 11:28 34.662321 -117.774869 81 13011ft 143kts
01-Oct-22 11:29 34.672945 -117.728261 73 13011ft 144kts
01-Oct-22 11:30 34.684457 -117.681609 73 13011ft 144kts
01-Oct-22 11:31 34.695980 -117.634930 73 13011ft 144kts
01-Oct-22 11:32 34.708147 -117.588431 70 13011ft 144kts
01-Oct-22 11:33 34.720983 -117.542363 70 13011ft 144kts
01-Oct-22 11:34 34.733872 -117.496120 70 13011ft 144kts
01-Oct-22 11:35 34.746746 -117.449946 70 13011ft 144kts
01-Oct-22 11:36 34.759136 -117.403498 75 13011ft 144kts
01-Oct-22 11:37 34.768813 -117.356229 74 13011ft 144kts
01-Oct-22 11:38 34.780113 -117.309331 73 13011ft 144kts
01-Oct-22 11:39 34.791789 -117.262722 73 13011ft 144kts
01-Oct-22 11:40 34.803557 -117.216008 73 13011ft 144kts
01-Oct-22 11:41 34.815339 -117.169216 72 13011ft 144kts
01-Oct-22 11:42 34.827069 -117.122560 72 13011ft 144kts
01-Oct-22 11:43 34.838808 -117.075784 72 13011ft 144kts
01-Oct-22 11:44 34.850500 -117.029115 72 13011ft 144kts
01-Oct-22 11:45 34.862182 -116.982398 72 13011ft 144kts
01-Oct-22 11:46 34.873820 -116.935773 72 13043ft 142kts
01-Oct-22 11:47 34.885384 -116.889360 72 13047ft 144kts
01-Oct-22 11:48 34.897001 -116.842652 72 13047ft 144kts
01-Oct-22 11:49 34.908645 -116.795747 72 13047ft 144kts
01-Oct-22 11:50 34.920246 -116.748930 72 13047ft 144kts
01-Oct-22 11:51 34.931829 -116.702101 72 13047ft 144kts
01-Oct-22 11:52 34.943411 -116.655191 72 13047ft 144kts
01-Oct-22 11:53 34.954970 -116.608285 72 13047ft 144kts
01-Oct-22 11:54 34.969458 -116.562986 61 13047ft 144kts
01-Oct-22 11:55 34.988410 -116.519818 61 13047ft 144kts
01-Oct-22 11:56 35.007561 -116.476633 61 13047ft 144kts
01-Oct-22 11:57 35.026698 -116.433513 61 13047ft 144kts
01-Oct-22 11:58 35.045786 -116.390464 61 13047ft 144kts
01-Oct-22 11:59 35.064891 -116.347324 61 13047ft 144kts
01-Oct-22 12:00 35.083984 -116.304167 61 13047ft 144kts
01-Oct-22 12:01 35.103119 -116.260853 61 13047ft 144kts
01-Oct-22 12:02 35.122179 -116.217649 61 13047ft 144kts
01-Oct-22 12:03 35.141187 -116.174512 61 13047ft 144kts
01-Oct-22 12:04 35.160246 -116.131203 61 13047ft 144kts
01-Oct-22 12:05 35.179241 -116.087985 61 13047ft 144kts
01-Oct-22 12:06 35.198274 -116.044626 61 13047ft 144kts
01-Oct-22 12:07 35.217242 -116.001359 61 13047ft 144kts
01-Oct-22 12:08 35.236243 -115.957962 61 13047ft 144kts
01-Oct-22 12:09 35.255213 -115.914579 61 13047ft 144kts
01-Oct-22 12:10 35.274116 -115.871294 61 13047ft 144kts
01-Oct-22 12:11 35.293038 -115.827911 61 13047ft 144kts
01-Oct-22 12:12 35.312844 -115.785167 48 13048ft 144kts
01-Oct-22 12:13 35.340061 -115.747957 47 12544ft 150kts
01-Oct-22 12:14 35.368411 -115.710097 47 11710ft 147kts
01-Oct-22 12:15 35.395649 -115.673766 47 10614ft 143kts
01-Oct-22 12:16 35.418141 -115.643766 47 10228ft 113kts
01-Oct-22 12:17 35.437670 -115.617668 47 10079ft 111kts
01-Oct-22 12:18 35.461148 -115.586185 47 10074ft 133kts
01-Oct-22 12:19 35.486813 -115.551795 47 10072ft 138kts
01-Oct-22 12:20 35.512855 -115.516890 47 10072ft 139kts
01-Oct-22 12:21 35.539059 -115.481757 47 10072ft 139kts
01-Oct-22 12:22 35.565193 -115.446682 47 10072ft 139kts
01-Oct-22 12:23 35.591342 -115.411444 47 10072ft 139kts
01-Oct-22 12:24 35.617466 -115.376235 47 10072ft 139kts
01-Oct-22 12:25 35.643534 -115.340997 47 10072ft 139kts
01-Oct-22 12:26 35.669602 -115.305749 47 10072ft 139kts
01-Oct-22 12:27 35.695726 -115.270418 47 10072ft 139kts
01-Oct-22 12:28 35.727984 -115.243942 21 9513ft 150kts
01-Oct-22 12:29 35.766685 -115.225069 21 8309ft 146kts
01-Oct-22 12:30 35.804119 -115.206853 21 6919ft 145kts
01-Oct-22 12:31 35.838719 -115.189998 21 6109ft 127kts
01-Oct-22 12:32 35.870347 -115.174521 21 6092ft 124kts
01-Oct-22 12:33 35.902806 -115.158585 21 6092ft 126kts
01-Oct-22 12:34 35.935367 -115.142592 21 6091ft 126kts
01-Oct-22 12:35 35.968101 -115.126505 21 6091ft 125kts
01-Oct-22 12:36 36.000076 -115.110791 21 6091ft 123kts
01-Oct-22 12:37 36.031879 -115.095153 21 6072ft 124kts
01-Oct-22 12:38 36.070650 -115.076051 21 4537ft 159kts
01-Oct-22 12:39 36.107227 -115.063863 350 3926ft 116kts
01-Oct-22 12:40 36.127204 -115.087774 275 3924ft 108kts
01-Oct-22 12:41 36.133631 -115.128737 281 3259ft 135kts
01-Oct-22 12:42 36.108303 -115.150773 209 2599ft 102kts
01-Oct-22 12:43 36.090378 -115.161734 208 2122ft 32kts
01-Oct-22 12:44 36.089367 -115.163418 294 2130ft 0kts
01-Oct-22 12:46 36.089563 -115.163956 295 2132ft 4kts
01-Oct-22 12:47 36.088600 -115.165171 205 2138ft 10kts

Navigation Log

Ident Type
Flight plan parsing failed, navigation log unavailable